Latest Weather Observations for North Head

IDN60901

Issued at 1:31 pm EST Tuesday 22 August 2017 (issued every 10 minutes, with the page automatically refreshed every 10 minutes)

About weather observations | Map of Sydney area stations | Latest observations for Sydney area | Other Formats
Station Details ID: 066197 Name: NORTH HEAD Lat: -33.82 Lon: 151.30 Height: 90.0 m
Data from the previous 72 hours. | See also: Recent months for locations in New South Wales
Date/Time
EST
Temp
°C
App
Temp
°C
Dew
Point
°C
Rel
Hum
%
Delta-T
°C
Wind Press
QNH
hPa
Press
MSL
hPa
Rain since
9am
mm
Dir  Spd
km/h
Gust
km/h
Spd
kts
Gust
kts
22/01:30pm - - - - - SE 13 19 7 10 - - -
22/01:00pm - - - - - SE 13 17 7 9 - - -
22/12:30pm - - - - - E 9 15 5 8 - - -
22/12:00pm - - - - - W 6 11 3 6 - - -
22/11:30am - - - - - WSW 6 9 3 5 - - -
22/11:00am - - - - - SW 7 9 4 5 - - -
22/10:30am - - - - - SW 6 13 3 7 - - -
22/10:00am - - - - - W 7 11 4 6 - - -
22/09:30am - - - - - WNW 7 11 4 6 - - -
22/09:00am - - - - - WNW 9 13 5 7 - - -
22/08:30am - - - - - W 9 13 5 7 - - -
22/08:00am - - - - - W 11 15 6 8 - - -
22/07:30am - - - - - W 9 13 5 7 - - -
22/07:00am - - - - - W 13 17 7 9 - - -
22/06:30am - - - - - W 11 13 6 7 - - -
22/06:00am - - - - - W 11 13 6 7 - - -
22/05:30am - - - - - W 11 13 6 7 - - -
22/05:00am - - - - - W 11 13 6 7 - - -
22/04:30am - - - - - W 11 15 6 8 - - -
22/04:00am - - - - - W 11 13 6 7 - - -
22/03:30am - - - - - W 9 11 5 6 - - -
22/03:00am - - - - - W 9 11 5 6 - - -
22/02:30am - - - - - W 9 9 5 5 - - -
22/02:00am - - - - - WSW 9 13 5 7 - - -
22/01:30am - - - - - WSW 9 11 5 6 - - -
22/01:00am - - - - - WSW 7 13 4 7 - - -
22/12:30am - - - - - CALM 0 4 0 2 - - -
22/12:00am - - - - - WSW 4 6 2 3 - - -
 
Date/Time
EST
Temp
°C
App
Temp
°C
Dew
Point
°C
Rel
Hum
%
Delta-T
°C
Wind Press
QNH
hPa
Press
MSL
hPa
Rain since
9am
mm
Dir  Spd
km/h
Gust
km/h
Spd
kts
Gust
kts
21/11:30pm - - - - - WSW 7 11 4 6 - - -
21/11:00pm - - - - - SW 7 11 4 6 - - -
21/10:30pm - - - - - SSW 9 15 5 8 - - -
21/10:00pm - - - - - S 4 6 2 3 - - -
21/09:30pm - - - - - W 6 7 3 4 - - -
21/09:00pm - - - - - W 6 7 3 4 - - -
21/08:30pm - - - - - W 6 7 3 4 - - -
21/08:00pm - - - - - WNW 6 7 3 4 - - -
21/07:30pm - - - - - WNW 7 9 4 5 - - -
21/07:00pm - - - - - W 6 7 3 4 - - -
21/06:30pm - - - - - NNW 4 6 2 3 - - -
21/06:00pm - - - - - N 6 7 3 4 - - -
21/05:30pm - - - - - N 7 13 4 7 - - -
21/05:00pm - - - - - N 9 17 5 9 - - -
21/04:30pm - - - - - NNW 7 11 4 6 - - -
21/04:00pm - - - - - N 9 15 5 8 - - -
21/03:30pm - - - - - NNE 11 17 6 9 - - -
21/03:00pm - - - - - NNE 9 15 5 8 - - -
21/02:30pm - - - - - NNE 9 15 5 8 - - -
21/02:00pm - - - - - NNE 7 11 4 6 - - -
21/01:30pm - - - - - N 9 15 5 8 - - -
21/01:00pm - - - - - N 9 15 5 8 - - -
21/12:30pm - - - - - NNW 6 9 3 5 - - -
21/12:00pm - - - - - NNW 9 17 5 9 - - -
21/11:30am - - - - - N 7 13 4 7 - - -
21/11:00am - - - - - NNW 7 13 4 7 - - -
21/10:30am - - - - - NW 6 11 3 6 - - -
21/10:00am - - - - - WNW 4 7 2 4 - - -
21/09:30am - - - - - W 7 11 4 6 - - -
21/09:00am - - - - - NW 7 13 4 7 - - -
21/08:30am - - - - - W 9 15 5 8 - - -
21/08:00am - - - - - WNW 9 15 5 8 - - -
21/07:30am - - - - - WNW 11 20 6 11 - - -
21/07:00am - - - - - W 15 20 8 11 - - -
21/06:30am - - - - - W 7 11 4 6 - - -
21/06:00am - - - - - W 9 11 5 6 - - -
21/05:30am - - - - - WNW 11 15 6 8 - - -
21/05:00am - - - - - W 11 13 6 7 - - -
21/04:30am - - - - - W 11 13 6 7 - - -
21/04:00am - - - - - W 13 15 7 8 - - -
21/03:30am - - - - - W 11 15 6 8 - - -
21/03:00am - - - - - W 13 17 7 9 - - -
21/02:30am - - - - - W 13 17 7 9 - - -
21/02:00am - - - - - W 13 15 7 8 - - -
21/01:30am - - - - - W 13 19 7 10 - - -
21/01:00am - - - - - WNW 13 20 7 11 - - -
21/12:30am - - - - - WNW 15 20 8 11 - - -
21/12:00am - - - - - WNW 11 13 6 7 - - -
 
Date/Time
EST
Temp
°C
App
Temp
°C
Dew
Point
°C
Rel
Hum
%
Delta-T
°C
Wind Press
QNH
hPa
Press
MSL
hPa
Rain since
9am
mm
Dir  Spd
km/h
Gust
km/h
Spd
kts
Gust
kts
20/11:30pm - - - - - WNW 7 9 4 5 - - -
20/11:00pm - - - - - W 4 6 2 3 - - -
20/10:30pm - - - - - SW 4 6 2 3 - - -
20/10:00pm - - - - - WSW 6 7 3 4 - - -
20/09:30pm - - - - - WNW 7 7 4 4 - - -
20/09:00pm - - - - - W 6 9 3 5 - - -
20/08:30pm - - - - - SW 9 15 5 8 - - -
20/08:00pm - - - - - SW 7 15 4 8 - - -
20/07:30pm - - - - - SSW 9 15 5 8 - - -
20/07:00pm - - - - - SSW 9 13 5 7 - - -
20/06:30pm - - - - - SSW 11 19 6 10 - - -
20/06:00pm - - - - - SSW 15 22 8 12 - - -
20/05:30pm - - - - - SSW 15 30 8 16 - - -
20/05:00pm - - - - - SSW 15 24 8 13 - - -
20/04:30pm - - - - - S 17 26 9 14 - - -
20/04:00pm - - - - - SSW 17 32 9 17 - - -
20/03:30pm - - - - - SSW 17 32 9 17 - - -
20/03:00pm - - - - - SSW 19 30 10 16 - - -
20/02:30pm - - - - - SSW 19 32 10 17 - - -
20/02:00pm - - - - - SW 20 32 11 17 - - -
20/01:30pm - - - - - SSW 20 35 11 19 - - -
20/01:00pm - - - - - SSW 19 32 10 17 - - -
20/12:30pm - - - - - S 15 26 8 14 - - -
20/12:00pm - - - - - S 20 35 11 19 - - -
20/11:30am - - - - - S 17 32 9 17 - - -
20/11:00am - - - - - SSW 20 37 11 20 - - -
20/10:30am - - - - - SSW 22 37 12 20 - - -
20/10:00am - - - - - SW 17 28 9 15 - - -
20/09:30am - - - - - SW 19 28 10 15 - - -
20/09:00am - - - - - WSW 20 32 11 17 - - -
20/08:30am - - - - - WSW 19 28 10 15 - - -
20/08:00am - - - - - W 20 30 11 16 - - -
20/07:30am - - - - - WSW 20 30 11 16 - - -
20/07:00am - - - - - WSW 22 33 12 18 - - -
20/06:30am - - - - - W 20 33 11 18 - - -
20/06:00am - - - - - WSW 19 28 10 15 - - -
20/05:30am - - - - - WSW 22 35 12 19 - - -
20/05:00am - - - - - WSW 22 35 12 19 - - -
20/04:30am - - - - - WSW 22 33 12 18 - - -
20/04:00am - - - - - WSW 22 33 12 18 - - -
20/03:30am - - - - - W 22 35 12 19 - - -
20/03:00am - - - - - WSW 20 32 11 17 - - -
20/02:30am - - - - - WSW 19 28 10 15 - - -
20/02:00am - - - - - WSW 20 32 11 17 - - -
20/01:30am - - - - - WSW 20 28 11 15 - - -
20/01:00am - - - - - WSW 20 30 11 16 - - -
20/12:30am - - - - - WSW 20 32 11 17 - - -
20/12:00am - - - - - SW 24 44 13 24 - - -
 
Date/Time
EST
Temp
°C
App
Temp
°C
Dew
Point
°C
Rel
Hum
%
Delta-T
°C
Wind Press
QNH
hPa
Press
MSL
hPa
Rain since
9am
mm
Dir  Spd
km/h
Gust
km/h
Spd
kts
Gust
kts
19/11:30pm - - - - - SW 26 39 14 21 - - -
19/11:00pm - - - - - SW 22 39 12 21 - - -
19/10:30pm - - - - - SW 24 37 13 20 - - -
19/10:00pm - - - - - SW 20 35 11 19 - - -
19/09:47pm - - - - - SW 28 48 15 26 - - -
19/09:30pm - - - - - SW 22 39 12 21 - - -
19/09:00pm - - - - - SSW 20 33 11 18 - - -
19/08:30pm - - - - - S 30 52 16 28 - - -
19/08:16pm - - - - - SSW 28 50 15 27 - - -
19/08:00pm - - - - - SSW 24 39 13 21 - - -
19/07:30pm - - - - - SSW 28 48 15 26 - - -
19/07:00pm - - - - - SSW 30 52 16 28 - - -
19/06:30pm - - - - - SSW 28 46 15 25 - - -
19/06:06pm - - - - - S 28 56 15 30 - - -
19/06:00pm - - - - - S 26 52 14 28 - - -
19/05:40pm - - - - - S 28 54 15 29 - - -
19/05:30pm - - - - - SSW 26 43 14 23 - - -
19/05:15pm - - - - - S 28 46 15 25 - - -
19/05:00pm - - - - - S 24 39 13 21 - - -
19/04:30pm - - - - - S 24 46 13 25 - - -
19/04:00pm - - - - - SSW 33 61 18 33 - - -
19/03:30pm - - - - - SSW 32 54 17 29 - - -
19/03:00pm - - - - - SSW 28 46 15 25 - - -
19/02:30pm - - - - - SSW 33 57 18 31 - - -
19/02:00pm - - - - - SSW 32 54 17 29 - - -

Latest Capital City Observations: Canberra | Sydney | Melbourne | Brisbane | Adelaide | Perth | Hobart | Darwin

Other Formats:

Comma delimited format used in spreadsheet applications
http://www.bom.gov.au/fwo/IDN60901/IDN60901.95768.axf

JavaScript Object Notation format (JSON) in row-major order
http://www.bom.gov.au/fwo/IDN60901/IDN60901.95768.json